Time;durP1;ratioP1;P1;durP2;ratioP2;P2;SDS_P1;SDS_P2;PMS_P1;PMS_P2;Temp;Humidity;BMP_temperature;BMP_pressure;BME280_temperature;BME280_humidity;BME280_pressure;Samples;Min_cycle;Max_cycle;Signal;HPM_P1;HPM_P2
2023/03/09 00:01:39;;;;;;;4.73;4.43;;;18.00;38.10;;;;;;5003917;28;20215;-68
2023/03/09 00:04:05;;;;;;;4.70;4.40;;;18.00;38.10;;;;;;4999789;28;20431;-68
2023/03/09 00:06:31;;;;;;;4.80;4.50;;;18.00;38.10;;;;;;4988357;28;20302;-68
2023/03/09 00:08:56;;;;;;;4.73;4.33;;;18.00;38.10;;;;;;4998699;28;20528;-67
2023/03/09 00:11:22;;;;;;;5.43;4.93;;;18.00;38.10;;;;;;5000863;28;20292;-68
2023/03/09 00:13:49;;;;;;;4.57;4.17;;;18.00;38.00;;;;;;5000692;28;20223;-68
2023/03/09 00:16:27;;;;;;;4.40;4.03;;;18.00;38.00;;;;;;4990748;28;20359;-68
2023/03/09 00:18:53;;;;;;;4.03;3.73;;;18.00;38.00;;;;;;5016141;28;21089;-67
2023/03/09 00:21:36;;;;;;;4.43;4.23;;;18.00;38.10;;;;;;4991137;28;20489;-68
2023/03/09 00:24:05;;;;;;;4.43;4.23;;;18.00;38.00;;;;;;4987476;28;20473;-68
2023/03/09 00:26:31;;;;;;;4.67;4.27;;;18.00;38.10;;;;;;4984374;28;20458;-67
2023/03/09 00:28:57;;;;;;;4.50;4.20;;;18.00;38.10;;;;;;5002692;28;20452;-67
2023/03/09 00:31:23;;;;;;;5.40;3.60;;;18.00;38.00;;;;;;4997323;28;20534;-68
2023/03/09 00:33:49;;;;;;;5.33;4.30;;;18.00;38.10;;;;;;5001287;28;20230;-68
2023/03/09 00:36:16;;;;;;;3.50;3.20;;;18.00;38.10;;;;;;4993403;28;21129;-68
2023/03/09 00:38:42;;;;;;;4.13;3.83;;;18.00;38.00;;;;;;4991171;28;20527;-68
2023/03/09 00:41:08;;;;;;;3.83;3.53;;;18.00;38.00;;;;;;5002150;28;20602;-69
2023/03/09 00:43:34;;;;;;;3.50;3.30;;;18.00;38.00;;;;;;4999324;28;20471;-69
2023/03/09 00:45:59;;;;;;;6.63;3.97;;;18.00;38.00;;;;;;4996213;28;20563;-68
2023/03/09 00:48:25;;;;;;;3.83;3.60;;;18.00;38.00;;;;;;4995744;28;20250;-68
2023/03/09 00:50:51;;;;;;;4.70;4.40;;;18.00;38.00;;;;;;4998807;28;20215;-68
2023/03/09 00:53:16;;;;;;;3.80;3.47;;;18.00;38.00;;;;;;4993210;28;20274;-68
2023/03/09 00:55:42;;;;;;;3.83;3.53;;;18.00;38.00;;;;;;4997169;28;20223;-68
2023/03/09 00:58:07;;;;;;;4.50;4.20;;;18.00;38.00;;;;;;4995988;28;20242;-68
2023/03/09 01:00:33;;;;;;;4.00;3.70;;;18.00;38.80;;;;;;4990757;28;20215;-69
2023/03/09 01:02:59;;;;;;;4.17;3.90;;;18.00;38.00;;;;;;4999013;28;20222;-68
2023/03/09 01:05:25;;;;;;;3.23;3.03;;;18.00;38.00;;;;;;4994773;28;21008;-69
2023/03/09 01:07:51;;;;;;;3.90;3.60;;;18.00;38.00;;;;;;4993879;28;20424;-68
2023/03/09 01:10:17;;;;;;;3.93;3.63;;;18.00;38.00;;;;;;4994952;28;20461;-68
2023/03/09 01:12:42;;;;;;;3.77;3.47;;;18.00;38.00;;;;;;4997807;28;20224;-69
2023/03/09 01:15:10;;;;;;;4.60;4.23;;;18.00;38.80;;;;;;4995427;28;20228;-69
2023/03/09 01:17:35;;;;;;;3.40;3.20;;;18.00;38.10;;;;;;4986210;28;20235;-69
2023/03/09 01:20:01;;;;;;;3.77;3.47;;;18.00;38.10;;;;;;4995213;28;20430;-68
2023/03/09 01:22:26;;;;;;;4.17;3.87;;;18.00;38.00;;;;;;4989174;28;20220;-69
2023/03/09 01:24:52;;;;;;;3.80;3.60;;;18.00;38.00;;;;;;4994966;28;20285;-69
2023/03/09 01:27:17;;;;;;;3.40;3.20;;;18.00;38.00;;;;;;4997980;28;20230;-69
2023/03/09 01:29:43;;;;;;;3.20;3.00;;;18.00;38.10;;;;;;5000889;28;20297;-69
2023/03/09 01:32:08;;;;;;;3.93;3.50;;;18.00;38.00;;;;;;4991717;28;20224;-68
2023/03/09 01:34:34;;;;;;;3.40;3.10;;;18.00;38.00;;;;;;4992167;28;20231;-69
2023/03/09 01:36:59;;;;;;;3.50;3.30;;;18.00;38.00;;;;;;4999594;28;20240;-68
2023/03/09 01:39:25;;;;;;;3.80;3.50;;;18.00;38.00;;;;;;4998356;28;20238;-68
2023/03/09 01:41:51;;;;;;;3.93;3.70;;;18.00;38.00;;;;;;5000227;28;20277;-68
2023/03/09 01:44:16;;;;;;;3.30;3.00;;;18.00;38.00;;;;;;4981515;28;20228;-69
2023/03/09 01:46:49;;;;;;;3.37;3.17;;;18.00;38.10;;;;;;4958654;28;1054221;-68
2023/03/09 01:49:18;;;;;;;3.30;3.10;;;18.00;38.00;;;;;;4995176;28;20725;-68
2023/03/09 01:52:25;;;;;;;3.20;3.00;;;18.00;38.10;;;;;;4995779;28;21256;-69
2023/03/09 01:54:59;;;;;;;3.53;3.27;;;18.00;38.10;;;;;;4993706;28;20456;-67
2023/03/09 01:57:32;;;;;;;3.77;3.47;;;18.00;38.00;;;;;;4994909;28;20435;-69
2023/03/09 02:00:05;;;;;;;3.10;2.90;;;18.00;38.10;;;;;;4997921;28;20458;-68
2023/03/09 02:02:35;;;;;;;3.10;2.90;;;18.00;38.10;;;;;;4994068;28;20462;-68
2023/03/09 02:05:04;;;;;;;3.30;3.10;;;18.00;38.10;;;;;;4992193;28;20495;-68
2023/03/09 02:07:34;;;;;;;2.77;2.57;;;18.00;38.10;;;;;;4999226;28;20475;-68
2023/03/09 02:10:11;;;;;;;3.20;2.90;;;18.00;38.10;;;;;;4986258;28;21066;-68
2023/03/09 02:12:39;;;;;;;3.53;3.27;;;18.00;38.10;;;;;;4992819;28;20427;-68
2023/03/09 02:15:05;;;;;;;3.40;3.20;;;18.00;38.10;;;;;;4980068;28;20443;-68
2023/03/09 02:17:31;;;;;;;2.90;2.70;;;18.00;38.10;;;;;;4983037;28;20471;-69
2023/03/09 02:20:04;;;;;;;3.30;3.10;;;18.00;38.10;;;;;;4993153;28;20466;-68
2023/03/09 02:22:32;;;;;;;3.20;3.00;;;18.00;38.10;;;;;;5001550;28;20223;-68
2023/03/09 02:25:20;;;;;;;3.50;3.30;;;18.00;38.10;;;;;;4997353;28;20446;-68
2023/03/09 02:27:46;;;;;;;3.37;3.17;;;18.00;38.10;;;;;;4996319;28;20479;-68
2023/03/09 02:30:13;;;;;;;3.00;2.80;;;18.00;38.10;;;;;;4983853;28;20466;-68
2023/03/09 02:32:38;;;;;;;3.37;3.10;;;18.00;38.10;;;;;;4986961;28;20461;-68
2023/03/09 02:35:09;;;;;;;3.50;3.30;;;18.00;38.10;;;;;;4994958;28;21066;-68
2023/03/09 02:37:39;;;;;;;3.30;3.10;;;18.00;38.10;;;;;;4986415;28;20817;-68
2023/03/09 02:40:13;;;;;;;3.07;2.90;;;18.00;38.10;;;;;;4992763;28;20535;-68
2023/03/09 02:42:39;;;;;;;3.23;3.03;;;17.90;38.00;;;;;;4997193;28;20983;-68
2023/03/09 02:45:06;;;;;;;4.00;3.70;;;17.90;38.00;;;;;;4987817;28;20992;-68
2023/03/09 02:47:32;;;;;;;3.50;3.23;;;18.00;38.10;;;;;;4996016;28;20338;-68
2023/03/09 02:49:57;;;;;;;3.50;3.30;;;18.00;38.10;;;;;;4991174;28;20572;-68
2023/03/09 02:52:23;;;;;;;2.87;2.67;;;17.90;38.10;;;;;;5001291;28;20564;-68
2023/03/09 02:54:49;;;;;;;2.40;2.30;;;17.90;38.00;;;;;;4998960;28;20363;-68
2023/03/09 02:57:15;;;;;;;3.40;3.20;;;17.90;38.10;;;;;;4995520;28;20688;-68
2023/03/09 02:59:40;;;;;;;3.50;3.30;;;17.90;38.00;;;;;;4990129;28;20227;-68
2023/03/09 03:02:06;;;;;;;3.50;3.30;;;17.90;38.10;;;;;;4994383;28;20584;-68
2023/03/09 03:04:32;;;;;;;2.90;2.70;;;17.90;38.10;;;;;;4998864;28;20219;-68
2023/03/09 03:06:58;;;;;;;3.00;2.77;;;17.90;38.10;;;;;;5018229;28;20464;-69
2023/03/09 03:09:24;;;;;;;3.10;2.90;;;17.90;38.00;;;;;;4995747;28;20224;-68
2023/03/09 03:11:49;;;;;;;3.20;3.00;;;18.00;38.10;;;;;;4991853;28;20268;-68
2023/03/09 03:14:15;;;;;;;2.93;2.73;;;17.90;38.00;;;;;;4994261;28;20223;-67
2023/03/09 03:16:40;;;;;;;3.03;2.83;;;17.90;38.10;;;;;;4985116;28;20242;-68
2023/03/09 03:19:06;;;;;;;3.27;2.97;;;17.90;38.00;;;;;;4996307;28;20553;-68
2023/03/09 03:21:31;;;;;;;2.87;2.77;;;17.90;38.00;;;;;;4996294;28;20319;-68
2023/03/09 03:23:57;;;;;;;3.10;2.90;;;17.90;38.00;;;;;;4995843;28;20219;-69
2023/03/09 03:26:22;;;;;;;3.00;2.80;;;18.00;38.10;;;;;;4994632;28;20223;-68
2023/03/09 03:28:48;;;;;;;3.40;2.87;;;17.90;38.00;;;;;;4996612;28;20232;-68
2023/03/09 03:31:13;;;;;;;3.30;3.00;;;17.90;38.00;;;;;;4998659;28;20251;-68
2023/03/09 03:33:39;;;;;;;3.13;2.93;;;17.90;38.00;;;;;;4998263;28;20314;-68
2023/03/09 03:36:06;;;;;;;3.30;3.10;;;17.90;38.10;;;;;;4995518;28;20235;-68
2023/03/09 03:38:31;;;;;;;3.47;3.27;;;17.90;38.00;;;;;;4997118;28;20223;-69
2023/03/09 03:40:57;;;;;;;3.53;3.33;;;17.90;38.00;;;;;;4999475;28;20427;-68
2023/03/09 03:43:22;;;;;;;3.70;3.50;;;17.90;38.10;;;;;;4997520;28;20231;-68
2023/03/09 03:45:48;;;;;;;3.33;3.13;;;17.90;38.00;;;;;;4997244;28;20227;-68
2023/03/09 03:48:13;;;;;;;3.43;3.23;;;17.90;38.10;;;;;;4998409;28;20328;-68
2023/03/09 03:50:39;;;;;;;3.40;2.93;;;17.90;38.10;;;;;;4994070;28;20238;-68
2023/03/09 03:53:05;;;;;;;3.20;3.00;;;17.90;38.00;;;;;;4983921;28;20675;-68
2023/03/09 03:55:31;;;;;;;3.00;2.70;;;17.90;38.00;;;;;;4995496;28;20293;-68
2023/03/09 03:57:56;;;;;;;3.40;3.20;;;17.90;38.00;;;;;;4993061;28;20246;-69
2023/03/09 04:00:22;;;;;;;3.17;2.97;;;17.90;38.00;;;;;;4989699;28;20676;-68
2023/03/09 04:02:48;;;;;;;3.50;3.20;;;17.90;38.10;;;;;;4998062;28;20261;-68
2023/03/09 04:05:13;;;;;;;3.73;3.13;;;17.90;38.80;;;;;;4991202;28;20588;-68
2023/03/09 04:07:39;;;;;;;3.30;3.10;;;17.90;38.00;;;;;;4997028;28;20215;-68
2023/03/09 04:10:05;;;;;;;4.43;3.63;;;17.90;38.00;;;;;;4995319;28;20266;-68
2023/03/09 04:12:31;;;;;;;3.17;2.97;;;17.90;38.00;;;;;;5004770;28;20620;-68
2023/03/09 04:14:56;;;;;;;3.27;3.07;;;17.90;38.00;;;;;;4984206;28;20454;-68
2023/03/09 04:17:22;;;;;;;3.40;3.20;;;17.90;38.00;;;;;;4989487;28;20235;-68
2023/03/09 04:19:47;;;;;;;3.53;3.33;;;17.90;38.00;;;;;;4996386;28;20234;-68
2023/03/09 04:22:13;;;;;;;3.30;3.10;;;17.90;38.00;;;;;;4996490;28;20220;-68
2023/03/09 04:24:38;;;;;;;3.50;3.30;;;17.90;38.00;;;;;;4996966;28;20219;-68
2023/03/09 04:27:04;;;;;;;3.53;3.33;;;17.90;38.00;;;;;;4987092;28;20269;-68
2023/03/09 04:29:29;;;;;;;4.10;3.80;;;17.90;38.00;;;;;;4983436;28;20263;-68
2023/03/09 04:31:55;;;;;;;4.03;3.83;;;17.90;38.00;;;;;;4988496;28;20223;-68
2023/03/09 04:34:20;;;;;;;3.57;3.37;;;17.90;38.00;;;;;;4999869;28;20224;-68
2023/03/09 04:36:46;;;;;;;3.27;3.07;;;17.90;38.10;;;;;;4996654;28;20235;-67
2023/03/09 04:39:11;;;;;;;3.73;3.53;;;17.90;38.10;;;;;;4998066;28;20230;-67
2023/03/09 04:41:37;;;;;;;3.60;3.30;;;17.90;38.10;;;;;;4996200;28;20227;-68
2023/03/09 04:44:02;;;;;;;3.90;3.70;;;17.90;38.10;;;;;;4997126;28;20215;-68
2023/03/09 04:46:28;;;;;;;4.20;3.60;;;17.90;38.10;;;;;;4992306;28;20231;-68
2023/03/09 04:48:54;;;;;;;3.37;3.17;;;17.90;38.10;;;;;;5002696;28;20235;-67
2023/03/09 04:51:20;;;;;;;3.60;3.37;;;17.90;38.10;;;;;;4999148;28;20215;-67
2023/03/09 04:53:45;;;;;;;4.10;3.80;;;17.90;38.20;;;;;;4998260;28;20231;-67
2023/03/09 04:56:11;;;;;;;3.40;3.20;;;17.90;38.20;;;;;;5002265;28;20461;-67
2023/03/09 04:58:37;;;;;;;3.80;3.50;;;17.90;38.10;;;;;;4999076;28;20246;-68
2023/03/09 05:01:02;;;;;;;3.70;3.40;;;17.90;38.20;;;;;;4998078;28;20215;-67
2023/03/09 05:03:28;;;;;;;3.43;3.23;;;17.90;38.10;;;;;;4999747;28;20227;-67
2023/03/09 05:05:54;;;;;;;3.80;3.50;;;17.90;38.10;;;;;;5001243;28;20281;-68
2023/03/09 05:08:19;;;;;;;3.43;3.23;;;17.90;38.20;;;;;;4997517;28;20807;-68
2023/03/09 05:10:45;;;;;;;3.73;3.43;;;17.90;38.00;;;;;;4999614;28;20638;-67
2023/03/09 05:13:11;;;;;;;3.40;3.20;;;17.90;38.00;;;;;;4987038;28;20728;-68
2023/03/09 05:15:40;;;;;;;3.63;3.43;;;17.90;38.00;;;;;;5000016;28;20220;-68
2023/03/09 05:18:07;;;;;;;3.20;3.00;;;17.90;38.00;;;;;;4983391;28;21009;-68
2023/03/09 05:20:33;;;;;;;3.70;3.50;;;18.00;38.00;;;;;;4994573;28;20449;-69
2023/03/09 05:23:00;;;;;;;3.20;3.00;;;18.00;38.00;;;;;;4998835;28;20457;-67
2023/03/09 05:25:26;;;;;;;2.93;2.73;;;18.00;37.90;;;;;;4995849;28;20219;-67
2023/03/09 05:27:51;;;;;;;4.00;3.70;;;18.00;37.90;;;;;;4995865;28;20461;-67
2023/03/09 05:30:19;;;;;;;3.50;3.30;;;18.00;38.70;;;;;;4986023;28;20219;-70
2023/03/09 05:32:44;;;;;;;3.57;3.33;;;18.00;37.90;;;;;;4995930;28;20215;-67
2023/03/09 05:35:10;;;;;;;4.17;3.87;;;18.00;37.90;;;;;;5028400;28;20460;-67
2023/03/09 05:37:35;;;;;;;3.60;3.30;;;18.00;37.90;;;;;;4981348;28;20331;-67
2023/03/09 05:40:04;;;;;;;3.70;3.40;;;18.00;37.90;;;;;;4992839;28;20230;-68
2023/03/09 05:42:30;;;;;;;4.13;3.83;;;18.00;37.90;;;;;;4985348;28;20248;-70
2023/03/09 05:44:55;;;;;;;3.90;3.60;;;18.00;37.80;;;;;;5011562;28;20643;-69
2023/03/09 05:47:21;;;;;;;4.13;3.83;;;18.00;37.90;;;;;;4995259;28;20243;-69
2023/03/09 05:49:49;;;;;;;4.93;3.30;;;18.00;37.80;;;;;;4994086;28;20835;-69
2023/03/09 05:52:14;;;;;;;3.83;3.53;;;18.00;37.90;;;;;;4988724;28;20227;-69
2023/03/09 05:54:40;;;;;;;3.43;3.23;;;18.00;37.90;;;;;;4987609;28;20447;-69
2023/03/09 05:57:05;;;;;;;4.30;4.00;;;18.00;37.80;;;;;;4984208;28;20282;-68
2023/03/09 05:59:31;;;;;;;3.23;3.03;;;18.10;38.00;;;;;;4998244;28;20306;-67
2023/03/09 06:01:56;;;;;;;3.63;3.43;;;18.00;37.80;;;;;;4998683;28;20234;-68
2023/03/09 06:04:22;;;;;;;3.70;3.40;;;18.00;37.80;;;;;;4996781;28;20227;-68
2023/03/09 06:06:48;;;;;;;3.50;3.30;;;18.00;37.80;;;;;;4987730;28;20243;-68
2023/03/09 06:09:13;;;;;;;3.50;3.30;;;18.00;38.50;;;;;;4996847;28;20224;-68
2023/03/09 06:11:39;;;;;;;3.33;3.13;;;18.10;37.80;;;;;;4992183;28;20243;-68
2023/03/09 06:14:04;;;;;;;4.20;3.90;;;18.00;37.70;;;;;;4985756;28;20234;-67
2023/03/09 06:16:30;;;;;;;6.30;4.10;;;18.00;37.70;;;;;;4996729;28;20239;-67
2023/03/09 06:18:55;;;;;;;4.83;4.43;;;18.00;37.60;;;;;;4992350;28;20255;-68
2023/03/09 06:21:21;;;;;;;3.80;3.60;;;18.10;37.70;;;;;;4988935;28;20248;-68
2023/03/09 06:23:46;;;;;;;3.67;3.47;;;18.10;37.80;;;;;;4993735;28;20704;-68
2023/03/09 06:26:13;;;;;;;3.77;3.47;;;18.00;37.80;;;;;;4985532;28;20607;-64
2023/03/09 06:28:38;;;;;;;3.57;3.30;;;18.00;37.70;;;;;;4972959;28;20227;-68
2023/03/09 06:31:11;;;;;;;4.50;4.20;;;18.00;37.60;;;;;;4987930;28;20465;-68
2023/03/09 06:33:38;;;;;;;3.87;3.63;;;18.10;37.80;;;;;;4993613;28;20315;-68
2023/03/09 06:36:04;;;;;;;5.00;3.97;;;18.10;37.60;;;;;;4982795;28;20468;-71
2023/03/09 06:38:29;;;;;;;4.30;4.00;;;18.00;37.60;;;;;;4993755;28;20467;-70
2023/03/09 06:40:55;;;;;;;5.00;4.60;;;18.10;37.70;;;;;;4991143;28;20837;-69
2023/03/09 06:43:21;;;;;;;3.70;3.50;;;18.10;37.70;;;;;;4997311;28;21232;-68
2023/03/09 06:45:47;;;;;;;4.93;4.40;;;18.00;37.50;;;;;;4993043;28;20247;-69
2023/03/09 06:48:13;;;;;;;5.10;4.60;;;18.10;37.60;;;;;;4988486;28;20609;-70
2023/03/09 06:50:38;;;;;;;3.80;3.60;;;18.10;37.60;;;;;;4994639;28;20485;-68
2023/03/09 06:53:04;;;;;;;4.20;3.90;;;18.10;37.60;;;;;;4995062;28;20548;-68
2023/03/09 06:55:30;;;;;;;4.70;4.40;;;18.10;37.60;;;;;;4982427;28;20225;-68
2023/03/09 06:57:55;;;;;;;4.07;3.77;;;18.10;37.60;;;;;;4993598;28;20261;-68
2023/03/09 07:00:21;;;;;;;5.07;4.57;;;18.10;37.60;;;;;;4985309;28;20226;-68
2023/03/09 07:02:47;;;;;;;4.87;4.47;;;18.00;37.50;;;;;;4999568;28;20790;-69
2023/03/09 07:05:12;;;;;;;5.13;4.70;;;18.00;37.50;;;;;;4989341;28;20465;-68
2023/03/09 07:07:39;;;;;;;5.50;5.10;;;18.00;37.50;;;;;;4990689;28;20402;-67
2023/03/09 07:10:05;;;;;;;5.10;4.70;;;18.00;37.50;;;;;;4980284;28;20229;-67
2023/03/09 07:12:31;;;;;;;5.90;5.40;;;18.10;37.60;;;;;;4991208;28;20469;-68
2023/03/09 07:14:57;;;;;;;53.70;9.23;;;18.10;37.60;;;;;;4988548;28;20531;-69
2023/03/09 07:17:22;;;;;;;52.13;14.17;;;18.10;37.70;;;;;;4994923;28;20263;-67
2023/03/09 07:19:48;;;;;;;57.10;13.70;;;18.10;37.70;;;;;;4993344;28;20655;-68
2023/03/09 07:22:13;;;;;;;67.67;16.43;;;18.10;37.80;;;;;;4983497;28;20687;-69
2023/03/09 07:24:39;;;;;;;35.33;12.80;;;18.10;37.90;;;;;;4982491;28;20306;-67
2023/03/09 07:27:07;;;;;;;35.23;12.60;;;18.10;37.90;;;;;;4989785;28;20580;-71
2023/03/09 07:29:32;;;;;;;26.67;9.70;;;18.20;38.00;;;;;;4992806;28;20438;-67
2023/03/09 07:31:59;;;;;;;17.17;9.43;;;18.20;38.10;;;;;;4989476;28;20972;-67
2023/03/09 07:34:25;;;;;;;25.80;9.07;;;18.10;38.00;;;;;;4987508;28;20289;-68
2023/03/09 07:36:50;;;;;;;19.10;9.17;;;18.10;38.00;;;;;;4986314;28;20452;-68
2023/03/09 07:39:16;;;;;;;14.53;7.90;;;18.20;38.80;;;;;;4979364;28;20227;-67
2023/03/09 07:41:42;;;;;;;19.13;7.87;;;18.10;37.90;;;;;;4986197;28;20311;-67
2023/03/09 07:44:07;;;;;;;17.10;7.97;;;18.10;38.00;;;;;;4988509;28;20273;-67
2023/03/09 07:46:33;;;;;;;10.77;7.03;;;18.10;38.00;;;;;;4996074;28;20243;-67
2023/03/09 07:48:59;;;;;;;11.00;7.70;;;18.10;38.00;;;;;;4991986;28;20230;-67
2023/03/09 07:51:25;;;;;;;14.67;7.67;;;18.10;38.10;;;;;;4986079;28;20252;-69
2023/03/09 07:53:50;;;;;;;12.90;7.93;;;18.10;38.00;;;;;;4991651;28;20664;-68
2023/03/09 07:56:15;;;;;;;13.60;8.00;;;18.10;38.00;;;;;;4976157;28;20225;-67
2023/03/09 07:58:41;;;;;;;9.00;7.10;;;18.10;38.00;;;;;;4991540;28;20262;-68
2023/03/09 08:01:14;;;;;;;9.27;7.33;;;18.10;38.00;;;;;;4993943;28;20224;-67
2023/03/09 08:03:40;;;;;;;9.13;6.83;;;18.10;37.90;;;;;;4993756;28;20227;-66
2023/03/09 08:06:06;;;;;;;14.63;7.03;;;18.10;38.00;;;;;;4988640;28;20492;-69
2023/03/09 08:08:33;;;;;;;12.30;6.63;;;18.10;38.00;;;;;;4987123;28;21465;-67
2023/03/09 08:10:58;;;;;;;17.33;8.40;;;18.10;38.00;;;;;;4990397;28;20231;-68
2023/03/09 08:13:24;;;;;;;10.70;6.83;;;18.10;38.00;;;;;;4981130;28;20469;-66
2023/03/09 08:15:51;;;;;;;8.50;6.47;;;18.10;38.00;;;;;;4996947;28;20234;-67
2023/03/09 08:18:18;;;;;;;8.57;6.47;;;18.20;38.10;;;;;;4991770;28;20939;-66
2023/03/09 08:20:44;;;;;;;10.50;7.07;;;18.20;38.00;;;;;;4993072;28;20440;-66
2023/03/09 08:23:10;;;;;;;18.40;8.23;;;18.10;37.90;;;;;;4994779;28;20458;-63
2023/03/09 08:25:36;;;;;;;9.97;6.43;;;18.10;37.90;;;;;;4997665;28;20510;-63
2023/03/09 08:28:03;;;;;;;9.67;7.00;;;18.20;38.70;;;;;;4996586;28;20439;-64
2023/03/09 08:30:28;;;;;;;11.77;6.53;;;18.20;38.00;;;;;;4995078;28;20282;-62
2023/03/09 08:32:54;;;;;;;7.57;6.37;;;18.20;38.00;;;;;;5000923;28;20435;-62
2023/03/09 08:35:22;;;;;;;9.17;5.80;;;18.20;38.00;;;;;;4990438;28;20684;-62
2023/03/09 08:37:48;;;;;;;7.97;5.90;;;18.10;37.90;;;;;;4992010;28;20235;-64
2023/03/09 08:40:15;;;;;;;13.27;6.67;;;18.20;37.90;;;;;;4989334;28;20449;-65
2023/03/09 08:42:41;;;;;;;12.63;7.00;;;18.20;38.00;;;;;;4986144;28;21035;-65
2023/03/09 08:45:07;;;;;;;14.23;7.37;;;18.20;37.90;;;;;;4994830;28;20534;-65
2023/03/09 08:47:33;;;;;;;7.00;6.30;;;18.20;37.80;;;;;;4991780;28;20476;-65
2023/03/09 08:49:59;;;;;;;8.00;6.03;;;18.20;37.80;;;;;;5002419;28;20494;-65
2023/03/09 08:52:24;;;;;;;7.67;5.27;;;18.20;37.80;;;;;;4997971;28;20223;-65
2023/03/09 08:54:50;;;;;;;8.27;6.90;;;18.20;37.60;;;;;;4993101;28;20211;-65
2023/03/09 08:57:17;;;;;;;6.63;6.03;;;18.20;37.80;;;;;;4988210;28;20247;-65
2023/03/09 08:59:43;;;;;;;6.97;6.13;;;18.20;37.80;;;;;;4991213;28;20781;-64
2023/03/09 09:02:14;;;;;;;8.50;6.17;;;18.20;37.70;;;;;;4999372;28;20525;-65
2023/03/09 09:04:41;;;;;;;6.70;6.10;;;18.20;37.70;;;;;;5001105;28;20245;-65
2023/03/09 09:07:08;;;;;;;7.97;6.30;;;18.20;37.80;;;;;;4994507;28;20818;-65
2023/03/09 09:09:33;;;;;;;8.23;5.83;;;18.20;37.70;;;;;;4998103;28;20497;-65
2023/03/09 09:11:59;;;;;;;9.80;6.40;;;18.20;37.90;;;;;;4998838;28;20423;-65
2023/03/09 09:14:24;;;;;;;7.13;6.17;;;18.10;37.80;;;;;;5002671;28;20590;-64
2023/03/09 09:16:50;;;;;;;10.33;6.80;;;18.20;37.80;;;;;;4996464;28;20309;-64
2023/03/09 09:19:16;;;;;;;6.00;5.47;;;18.20;37.80;;;;;;4998130;28;20306;-65
2023/03/09 09:21:42;;;;;;;6.03;5.53;;;18.20;37.90;;;;;;5002555;28;20476;-65
2023/03/09 09:24:08;;;;;;;7.90;5.90;;;18.20;37.80;;;;;;4999262;28;20224;-65
2023/03/09 09:26:34;;;;;;;5.37;4.97;;;18.10;37.80;;;;;;4992463;28;20215;-64
2023/03/09 09:29:01;;;;;;;6.43;5.80;;;18.10;37.80;;;;;;4992634;28;20224;-65
2023/03/09 09:31:27;;;;;;;5.80;5.40;;;18.10;37.70;;;;;;4993996;28;20684;-65
2023/03/09 09:33:53;;;;;;;5.97;5.57;;;18.10;37.70;;;;;;4999964;28;20472;-64
2023/03/09 09:36:19;;;;;;;5.60;5.10;;;18.10;37.80;;;;;;5004721;28;20416;-65
2023/03/09 09:38:46;;;;;;;6.00;5.40;;;18.10;37.80;;;;;;5003856;28;20235;-65
2023/03/09 09:41:24;;;;;;;6.07;5.30;;;18.10;37.70;;;;;;4993847;28;20454;-65
2023/03/09 09:43:55;;;;;;;6.20;5.63;;;18.10;37.70;;;;;;5003041;28;20534;-64
2023/03/09 09:46:22;;;;;;;6.10;5.60;;;18.10;37.70;;;;;;5006041;28;20464;-64
2023/03/09 09:48:49;;;;;;;5.13;4.50;;;18.10;37.70;;;;;;4992633;28;20534;-64
2023/03/09 09:51:44;;;;;;;5.30;4.90;;;18.10;37.70;;;;;;5006049;28;20419;-64
2023/03/09 09:54:28;;;;;;;6.80;5.70;;;18.10;37.70;;;;;;5002461;28;20492;-65
2023/03/09 09:57:00;;;;;;;6.30;5.53;;;18.10;37.70;;;;;;5005808;28;20919;-64
2023/03/09 09:59:36;;;;;;;5.17;4.60;;;18.10;37.80;;;;;;5003160;28;21174;-65
2023/03/09 10:02:08;;;;;;;5.70;4.87;;;18.10;37.70;;;;;;4998990;28;20439;-65
2023/03/09 10:04:41;;;;;;;5.17;4.73;;;18.10;37.60;;;;;;5003273;28;20456;-64
2023/03/09 10:07:16;;;;;;;6.03;5.40;;;18.10;37.80;;;;;;5004313;28;20534;-65
2023/03/09 10:09:46;;;;;;;5.83;5.33;;;18.10;37.80;;;;;;5001485;28;20476;-64
2023/03/09 10:12:16;;;;;;;5.60;5.10;;;18.10;37.70;;;;;;5003081;28;20482;-65
2023/03/09 10:14:50;;;;;;;5.50;4.97;;;18.10;37.90;;;;;;4999709;28;20488;-65
2023/03/09 10:17:37;;;;;;;6.07;5.57;;;18.10;37.80;;;;;;5004108;28;20492;-64
2023/03/09 10:20:17;;;;;;;4.97;4.47;;;18.10;37.70;;;;;;5002467;28;20991;-65
2023/03/09 10:22:47;;;;;;;5.20;4.77;;;18.10;37.70;;;;;;5005209;28;21045;-64
2023/03/09 10:25:16;;;;;;;5.07;4.67;;;18.10;37.80;;;;;;5003617;28;20453;-64
2023/03/09 10:27:42;;;;;;;5.00;4.60;;;18.10;37.70;;;;;;5004646;28;20512;-65
2023/03/09 10:30:14;;;;;;;5.17;4.67;;;18.10;37.60;;;;;;4999336;28;20436;-64
2023/03/09 10:33:02;;;;;;;4.50;4.10;;;18.10;37.60;;;;;;4992044;28;20520;-66
2023/03/09 10:35:55;;;;;;;4.80;4.40;;;18.10;37.80;;;;;;4999712;28;20484;-65
2023/03/09 10:38:23;;;;;;;5.33;4.93;;;18.10;37.60;;;;;;4998091;28;20477;-65
2023/03/09 10:40:51;;;;;;;4.90;4.43;;;18.10;37.80;;;;;;4985992;28;20428;-65
2023/03/09 10:43:24;;;;;;;4.83;4.43;;;18.10;37.70;;;;;;4990595;28;20448;-65
2023/03/09 10:45:49;;;;;;;5.53;5.13;;;18.10;37.70;;;;;;4980542;28;20460;-65
2023/03/09 10:48:24;;;;;;;5.23;4.73;;;18.10;37.70;;;;;;4986680;28;20536;-65
2023/03/09 10:50:59;;;;;;;4.57;4.27;;;18.10;37.60;;;;;;4990362;28;20225;-65
2023/03/09 10:53:41;;;;;;;5.10;4.60;;;18.10;37.60;;;;;;4981359;28;20829;-65
2023/03/09 10:56:16;;;;;;;4.80;4.43;;;18.10;37.60;;;;;;4981894;28;20991;-65
2023/03/09 10:58:42;;;;;;;4.63;4.33;;;18.10;37.60;;;;;;4980674;28;20465;-66
2023/03/09 11:01:11;;;;;;;4.87;4.37;;;18.10;37.60;;;;;;4965265;28;20512;-69
2023/03/09 11:03:41;;;;;;;6.13;4.33;;;18.10;37.60;;;;;;4986360;28;20926;-69
2023/03/09 11:06:12;;;;;;;4.70;4.40;;;18.10;37.60;;;;;;4982716;28;20528;-71
2023/03/09 11:08:41;;;;;;;4.57;4.27;;;18.10;37.60;;;;;;4973156;28;20992;-71
2023/03/09 11:11:18;;;;;;;4.93;4.53;;;18.10;37.60;;;;;;4977631;28;20468;-70
2023/03/09 11:13:46;;;;;;;4.00;3.60;;;18.10;37.60;;;;;;4975145;28;20469;-70
2023/03/09 11:16:26;;;;;;;5.20;4.80;;;18.10;37.60;;;;;;4973883;28;20446;-70
2023/03/09 11:19:14;;;;;;;4.63;4.33;;;18.10;37.60;;;;;;4978659;28;20453;-70
2023/03/09 11:21:52;;;;;;;4.40;3.97;;;18.10;37.60;;;;;;4985237;28;20476;-70
2023/03/09 11:24:18;;;;;;;4.80;4.37;;;18.10;37.60;;;;;;4973167;28;20482;-71
2023/03/09 11:26:55;;;;;;;4.23;3.93;;;18.10;37.60;;;;;;4973518;28;20459;-70
2023/03/09 11:29:38;;;;;;;3.80;3.60;;;18.10;37.60;;;;;;4983371;28;20483;-69
2023/03/09 11:32:03;;;;;;;4.80;4.50;;;18.10;37.60;;;;;;4978015;28;20611;-70
2023/03/09 11:34:38;;;;;;;8.50;4.30;;;18.10;37.60;;;;;;4976326;28;20480;-71
2023/03/09 11:37:19;;;;;;;4.27;3.97;;;18.10;37.60;;;;;;4970637;28;20240;-77
2023/03/09 11:39:49;;;;;;;4.30;4.00;;;18.10;37.60;;;;;;4987844;28;20440;-72
2023/03/09 11:42:21;;;;;;;4.30;3.90;;;18.10;37.60;;;;;;5008807;28;20444;-70
2023/03/09 11:44:48;;;;;;;4.30;4.00;;;18.20;37.60;;;;;;4992422;28;20461;-70
2023/03/09 11:47:33;;;;;;;5.50;5.00;;;18.20;37.60;;;;;;4988667;28;20959;-70
2023/03/09 11:50:05;;;;;;;5.00;4.60;;;18.20;37.60;;;;;;4996737;28;20465;-70
2023/03/09 11:52:35;;;;;;;5.57;4.33;;;18.20;37.60;;;;;;4991413;28;20515;-70
2023/03/09 11:55:27;;;;;;;4.50;4.20;;;18.20;37.60;;;;;;4991923;28;20423;-70
2023/03/09 11:57:59;;;;;;;5.43;3.87;;;18.20;37.60;;;;;;4990714;28;20473;-70
2023/03/09 12:00:27;;;;;;;4.13;3.83;;;18.20;37.60;;;;;;4975098;28;20469;-70
2023/03/09 12:02:59;;;;;;;3.67;3.43;;;18.20;37.60;;;;;;4989705;28;20461;-70
2023/03/09 12:05:28;;;;;;;4.07;3.77;;;18.20;37.60;;;;;;4987320;28;20975;-70
2023/03/09 12:08:02;;;;;;;4.43;3.67;;;18.20;37.60;;;;;;4992214;28;20427;-69
2023/03/09 12:10:37;;;;;;;4.80;4.40;;;18.20;37.60;;;;;;4990723;28;21155;-70
2023/03/09 12:13:35;;;;;;;4.70;4.30;;;18.20;37.60;;;;;;4990261;28;20454;-70
2023/03/09 12:16:15;;;;;;;3.80;3.60;;;18.20;37.60;;;;;;4989210;28;20458;-69
2023/03/09 12:19:00;;;;;;;3.73;3.43;;;18.20;37.60;;;;;;4994008;28;20570;-69
2023/03/09 12:21:40;;;;;;;4.63;4.33;;;18.20;37.60;;;;;;4989859;28;20460;-70
2023/03/09 12:24:30;;;;;;;4.10;3.80;;;18.20;37.60;;;;;;4985834;28;20476;-70
2023/03/09 12:26:59;;;;;;;4.27;4.00;;;18.20;37.60;;;;;;4988512;28;20481;-69
2023/03/09 12:29:31;;;;;;;4.33;4.03;;;18.20;37.60;;;;;;4991172;28;20537;-70
2023/03/09 12:32:18;;;;;;;5.17;3.60;;;18.20;37.60;;;;;;4983166;28;20561;-70
2023/03/09 12:34:45;;;;;;;3.57;3.37;;;18.20;37.60;;;;;;4990108;28;20537;-67
2023/03/09 12:37:30;;;;;;;3.83;3.53;;;18.20;37.60;;;;;;4989817;28;20476;-76
2023/03/09 12:40:26;;;;;;;3.60;3.30;;;18.20;37.60;;;;;;4994281;28;20439;-73
2023/03/09 12:42:54;;;;;;;4.53;4.20;;;18.20;37.60;;;;;;4986924;28;20449;-76
2023/03/09 12:45:30;;;;;;;3.90;3.27;;;18.20;37.60;;;;;;5001255;28;20555;-75
2023/03/09 12:48:16;;;;;;;4.67;4.30;;;18.20;37.60;;;;;;4998683;28;20464;-74
2023/03/09 12:50:42;;;;;;;3.70;3.40;;;18.20;37.60;;;;;;4998224;28;20548;-75
2023/03/09 12:53:20;;;;;;;4.97;4.07;;;18.20;37.80;;;;;;4999090;28;20431;-74